createdAt,value
2019-02-02T00:01:42.288Z,98554.97
2019-02-02T00:04:12.147Z,98552.27
2019-02-02T00:06:41.923Z,98557.03
2019-02-02T00:09:11.758Z,98552.50
2019-02-02T00:11:41.510Z,98541.87
2019-02-02T00:14:11.289Z,98530.19
2019-02-02T00:16:41.100Z,98522.00
2019-02-02T00:19:10.905Z,98522.97
2019-02-02T00:21:40.710Z,98526.39
2019-02-02T00:24:10.469Z,98525.34
2019-02-02T00:26:40.238Z,98518.45
2019-02-02T00:29:10.002Z,98520.70
2019-02-02T00:31:39.769Z,98521.75
2019-02-02T00:34:09.536Z,98540.52
2019-02-02T00:36:39.297Z,98550.22
2019-02-02T00:39:09.276Z,98562.33
2019-02-02T00:41:39.031Z,98561.47
2019-02-02T00:44:10.578Z,98557.42
2019-02-02T00:46:41.937Z,98554.98
2019-02-02T00:49:11.715Z,98548.45
2019-02-02T00:51:41.498Z,98550.53
2019-02-02T00:54:11.256Z,98549.92
2019-02-02T00:56:40.982Z,98545.77
2019-02-02T00:59:10.851Z,98556.84
2019-02-02T01:01:40.706Z,98553.00
2019-02-02T01:04:10.438Z,98552.19
2019-02-02T01:06:40.429Z,98554.16
2019-02-02T01:09:11.986Z,98559.77
2019-02-02T01:11:41.726Z,98555.86
2019-02-02T01:14:11.560Z,98555.97
2019-02-02T01:16:41.280Z,98557.56
2019-02-02T01:19:11.023Z,98549.69
2019-02-02T01:21:40.753Z,98559.52
2019-02-02T01:24:10.569Z,98557.52
2019-02-02T01:26:40.300Z,98547.47
2019-02-02T01:29:10.056Z,98549.96
2019-02-02T01:31:39.796Z,98549.23
2019-02-02T01:34:09.545Z,98541.66
2019-02-02T01:36:39.282Z,98540.69
2019-02-02T01:39:09.026Z,98548.80
2019-02-02T01:41:38.763Z,98541.97
2019-02-02T01:44:08.524Z,98538.96
2019-02-02T01:46:38.257Z,98546.73
2019-02-02T01:49:08.096Z,98547.80
2019-02-02T01:51:37.828Z,98550.70
2019-02-02T01:54:07.586Z,98557.00
2019-02-02T01:56:37.310Z,98554.28
2019-02-02T01:59:07.133Z,98550.43
2019-02-02T02:01:36.894Z,98543.63
2019-02-02T02:04:06.642Z,98539.86
2019-02-02T02:06:36.371Z,98540.16
2019-02-02T02:09:06.594Z,98543.57
2019-02-02T02:11:36.318Z,98536.47
2019-02-02T02:14:06.077Z,98523.19
2019-02-02T02:16:35.799Z,98524.52
2019-02-02T02:19:05.559Z,98525.51
2019-02-02T02:21:35.281Z,98524.89
2019-02-02T02:24:05.096Z,98516.45
2019-02-02T02:26:34.816Z,98508.69
2019-02-02T02:29:05.632Z,98506.11
2019-02-02T02:31:35.360Z,98499.28
2019-02-02T02:34:05.115Z,98507.84
2019-02-02T02:36:34.840Z,98507.84
2019-02-02T02:39:07.229Z,98512.90
2019-02-02T02:41:36.963Z,98519.83
2019-02-02T02:44:06.713Z,98518.69
2019-02-02T02:46:36.457Z,98517.19
2019-02-02T02:49:06.219Z,98514.80
2019-02-02T02:51:35.944Z,98514.55
2019-02-02T02:54:05.846Z,98518.40
2019-02-02T02:56:35.634Z,98519.13
2019-02-02T02:59:05.587Z,98515.91
2019-02-02T03:01:35.329Z,98519.94
2019-02-02T03:04:05.088Z,98522.20
2019-02-02T03:06:34.836Z,98521.66
2019-02-02T03:09:07.354Z,98515.98
2019-02-02T03:11:37.074Z,98510.62
2019-02-02T03:14:06.821Z,98510.92
2019-02-02T03:16:36.550Z,98516.49
2019-02-02T03:19:06.317Z,98526.31
2019-02-02T03:21:36.043Z,98520.55
2019-02-02T03:24:05.794Z,98519.20
2019-02-02T03:26:35.525Z,98525.03
2019-02-02T03:29:05.335Z,98533.35
2019-02-02T03:31:35.090Z,98531.92
2019-02-02T03:34:04.831Z,98539.25
2019-02-02T03:36:34.555Z,98546.31
2019-02-02T03:39:04.490Z,98546.19
2019-02-02T03:41:34.229Z,98551.20
2019-02-02T03:44:04.014Z,98555.05
2019-02-02T03:46:33.733Z,98567.27
2019-02-02T03:49:03.482Z,98564.41
2019-02-02T03:51:33.204Z,98571.02
2019-02-02T03:54:08.837Z,98573.59
2019-02-02T03:56:34.390Z,98574.02
2019-02-02T03:59:06.701Z,98571.88
2019-02-02T04:01:35.584Z,98571.27
2019-02-02T04:04:05.349Z,98562.00
2019-02-02T04:06:35.091Z,98561.69
2019-02-02T04:09:06.612Z,98563.32
2019-02-02T04:11:36.348Z,98560.20
2019-02-02T04:14:06.114Z,98563.27
2019-02-02T04:16:35.832Z,98561.34
2019-02-02T04:19:05.592Z,98564.18
2019-02-02T04:21:35.325Z,98566.75
2019-02-02T04:24:05.077Z,98574.52
2019-02-02T04:26:34.802Z,98574.70
2019-02-02T04:29:04.571Z,98579.86
2019-02-02T04:31:34.299Z,98576.49
2019-02-02T04:34:04.054Z,98581.34
2019-02-02T04:36:33.785Z,98583.46
2019-02-02T04:39:04.927Z,98581.93
2019-02-02T04:41:35.649Z,98587.47
2019-02-02T04:44:05.396Z,98589.56
2019-02-02T04:46:35.109Z,98589.92
2019-02-02T04:49:04.868Z,98592.63
2019-02-02T04:51:34.589Z,98593.48
2019-02-02T04:54:04.374Z,98599.53
2019-02-02T04:56:34.126Z,98600.38
2019-02-02T04:59:03.921Z,98606.87
2019-02-02T05:01:33.662Z,98604.87
2019-02-02T05:04:03.403Z,98598.03
2019-02-02T05:06:33.158Z,98600.99
2019-02-02T05:09:02.961Z,98592.89
2019-02-02T05:11:33.781Z,98590.17
2019-02-02T05:14:03.506Z,98594.77
2019-02-02T05:16:33.260Z,98600.52
2019-02-02T05:19:03.061Z,98608.35
2019-02-02T05:21:32.810Z,98608.30
2019-02-02T05:24:02.559Z,98604.84
2019-02-02T05:26:32.288Z,98612.70
2019-02-02T05:29:02.175Z,98616.84
2019-02-02T05:31:31.869Z,98622.72
2019-02-02T05:34:01.623Z,98638.41
2019-02-02T05:36:31.363Z,98643.96
2019-02-02T05:39:01.111Z,98638.82
2019-02-02T05:41:32.214Z,98633.02
2019-02-02T05:44:01.974Z,98632.28
2019-02-02T05:46:31.692Z,98640.55
2019-02-02T05:49:01.454Z,98641.79
2019-02-02T05:51:31.209Z,98636.73
2019-02-02T05:54:00.999Z,98638.03
2019-02-02T05:56:30.733Z,98633.48
2019-02-02T05:59:00.493Z,98640.98
2019-02-02T06:01:30.470Z,98645.63
2019-02-02T06:04:00.226Z,98646.52
2019-02-02T06:06:29.966Z,98650.97
2019-02-02T06:08:59.791Z,98651.95
2019-02-02T06:11:29.516Z,98644.84
2019-02-02T06:13:59.264Z,98648.61
2019-02-02T06:16:28.995Z,98649.53
2019-02-02T06:18:58.748Z,98646.52
2019-02-02T06:21:28.485Z,98655.69
2019-02-02T06:23:58.241Z,98659.02
2019-02-02T06:26:27.977Z,98662.95
2019-02-02T06:28:57.735Z,98667.22
2019-02-02T06:31:27.470Z,98669.00
2019-02-02T06:33:57.303Z,98668.66
2019-02-02T06:36:27.117Z,98672.23
2019-02-02T06:38:56.896Z,98675.52
2019-02-02T06:41:26.628Z,98687.91
2019-02-02T06:43:56.389Z,98686.17
2019-02-02T06:46:26.137Z,98688.83
2019-02-02T06:48:55.894Z,98685.06
2019-02-02T06:51:25.700Z,98684.34
2019-02-02T06:53:55.477Z,98686.74
2019-02-02T06:56:25.219Z,98693.74
2019-02-02T06:58:54.981Z,98707.44
2019-02-02T07:01:24.749Z,98717.78
2019-02-02T07:03:54.480Z,98718.51
2019-02-02T07:06:24.214Z,98717.12
2019-02-02T07:08:54.045Z,98730.03
2019-02-02T07:11:23.802Z,98731.25
2019-02-02T07:13:53.543Z,98739.68
2019-02-02T07:16:23.270Z,98751.61
2019-02-02T07:18:53.031Z,98751.23
2019-02-02T07:21:22.754Z,98747.25
2019-02-02T07:23:52.540Z,98752.59
2019-02-02T07:26:22.270Z,98757.81
2019-02-02T07:28:52.098Z,98761.45
2019-02-02T07:31:21.833Z,98762.39
2019-02-02T07:33:51.584Z,98763.86
2019-02-02T07:36:21.317Z,98756.58
2019-02-02T07:38:51.090Z,98755.16
2019-02-02T07:41:20.818Z,98757.38
2019-02-02T07:43:51.568Z,98752.88
2019-02-02T07:46:21.280Z,98757.09
2019-02-02T07:48:51.055Z,98754.97
2019-02-02T07:51:20.786Z,98758.87
2019-02-02T07:53:50.517Z,98766.78
2019-02-02T07:56:20.286Z,98768.44
2019-02-02T07:58:50.049Z,98761.31
2019-02-02T08:01:19.785Z,98763.39
2019-02-02T08:03:49.535Z,98765.23
2019-02-02T08:06:19.259Z,98764.94
2019-02-02T08:08:49.022Z,98765.52
2019-02-02T08:11:18.780Z,98767.80
2019-02-02T08:13:48.503Z,98765.09
2019-02-02T08:16:18.262Z,98773.66
2019-02-02T08:18:48.124Z,98780.64
2019-02-02T08:21:17.858Z,98776.84
2019-02-02T08:23:47.610Z,98782.63
2019-02-02T08:26:17.369Z,98789.42
2019-02-02T08:28:47.110Z,98790.55
2019-02-02T08:31:16.871Z,98808.24
2019-02-02T08:33:46.640Z,98816.11
2019-02-02T08:36:16.382Z,98811.95
2019-02-02T08:38:46.128Z,98808.02
2019-02-02T08:41:15.874Z,98818.52
2019-02-02T08:43:45.618Z,98835.28
2019-02-02T08:46:15.392Z,98837.81
2019-02-02T08:48:45.168Z,98840.36
2019-02-02T08:51:15.001Z,98841.64
2019-02-02T08:53:44.743Z,98845.30
2019-02-02T08:56:14.491Z,98851.08
2019-02-02T08:58:44.248Z,98856.13
2019-02-02T09:01:13.989Z,98862.36
2019-02-02T09:03:43.821Z,98862.08
2019-02-02T09:06:13.543Z,98864.94
2019-02-02T09:08:43.306Z,98863.17
2019-02-02T09:11:13.086Z,98859.28
2019-02-02T09:13:42.828Z,98857.77
2019-02-02T09:16:12.621Z,98852.92
2019-02-02T09:18:42.376Z,98853.56
2019-02-02T09:21:12.155Z,98857.97
2019-02-02T09:23:41.900Z,98866.50
2019-02-02T09:26:11.721Z,98869.20
2019-02-02T09:28:41.510Z,98870.80
2019-02-02T09:31:15.793Z,98872.82
2019-02-02T09:33:42.790Z,98876.59
2019-02-02T09:36:12.569Z,98873.95
2019-02-02T09:38:42.301Z,98873.58
2019-02-02T09:41:12.164Z,98867.05
2019-02-02T09:43:41.907Z,98873.65
2019-02-02T09:46:11.675Z,98861.58
2019-02-02T09:48:41.431Z,98872.95
2019-02-02T09:51:11.212Z,98874.03
2019-02-02T09:53:40.964Z,98882.08
2019-02-02T09:56:10.717Z,98880.18
2019-02-02T09:58:40.545Z,98888.03
2019-02-02T10:01:10.396Z,98890.81
2019-02-02T10:03:40.171Z,98896.59
2019-02-02T10:06:09.917Z,98904.19
2019-02-02T10:08:39.760Z,98908.77
2019-02-02T10:11:09.561Z,98908.81
2019-02-02T10:13:39.344Z,98910.99
2019-02-02T10:16:09.133Z,98920.72
2019-02-02T10:18:38.884Z,98918.33
2019-02-02T10:21:08.663Z,98925.65
2019-02-02T10:23:38.417Z,98917.23
2019-02-02T10:26:08.277Z,98935.66
2019-02-02T10:28:38.008Z,98933.89
2019-02-02T10:31:07.793Z,98937.48
2019-02-02T10:33:37.556Z,98938.73
2019-02-02T10:36:07.326Z,98939.23
2019-02-02T10:38:37.146Z,98943.14
2019-02-02T10:41:07.025Z,98941.30
2019-02-02T10:43:36.849Z,98943.47
2019-02-02T10:46:06.727Z,98939.33
2019-02-02T10:48:36.447Z,98952.48
2019-02-02T10:51:06.230Z,98953.72
2019-02-02T10:53:35.991Z,98945.27
2019-02-02T10:56:05.771Z,98953.36
2019-02-02T10:58:35.517Z,98952.61
2019-02-02T11:01:05.302Z,98950.34
2019-02-02T11:03:35.051Z,98957.70
2019-02-02T11:06:05.003Z,98956.95
2019-02-02T11:08:34.797Z,98956.02
2019-02-02T11:11:04.830Z,98961.60
2019-02-02T11:13:34.592Z,98963.90
2019-02-02T11:16:04.419Z,98975.46
2019-02-02T11:18:34.624Z,98965.28
2019-02-02T11:21:04.449Z,98975.05
2019-02-02T11:23:34.178Z,98982.45
2019-02-02T11:26:04.029Z,98985.50
2019-02-02T11:28:33.808Z,98982.45
2019-02-02T11:31:03.551Z,98993.44
2019-02-02T11:33:33.365Z,98988.64
2019-02-02T11:36:03.151Z,98984.63
2019-02-02T11:38:32.896Z,98989.67
2019-02-02T11:41:02.688Z,98987.77
2019-02-02T11:43:32.444Z,98991.56
2019-02-02T11:46:02.213Z,98991.83
2019-02-02T11:48:31.963Z,98996.19
2019-02-02T11:51:01.745Z,98995.78
2019-02-02T11:53:31.559Z,98993.20
2019-02-02T11:56:01.415Z,98995.05
2019-02-02T11:58:31.131Z,99000.11
2019-02-02T12:01:00.909Z,99004.45
2019-02-02T12:03:30.652Z,99011.90
2019-02-02T12:06:00.445Z,99001.19
2019-02-02T12:08:30.216Z,99010.44
2019-02-02T12:10:59.996Z,99003.13
2019-02-02T12:13:29.740Z,99006.50
2019-02-02T12:15:59.575Z,99016.25
2019-02-02T12:18:29.324Z,99011.11
2019-02-02T12:20:59.078Z,99019.76
2019-02-02T12:23:28.823Z,99026.80
2019-02-02T12:25:58.616Z,99035.36
2019-02-02T12:28:28.350Z,99032.14
2019-02-02T12:30:58.113Z,99046.02
2019-02-02T12:33:27.882Z,99049.75
2019-02-02T12:35:57.661Z,99052.44
2019-02-02T12:38:27.408Z,99055.55
2019-02-02T12:40:59.629Z,99045.25
2019-02-02T12:43:29.596Z,99050.38
2019-02-02T12:45:59.432Z,99058.39
2019-02-02T12:48:32.219Z,99067.68
2019-02-02T12:51:00.640Z,99065.49
2019-02-02T12:53:30.378Z,99078.25
2019-02-02T12:56:00.181Z,99078.42
2019-02-02T12:58:29.920Z,99085.77
2019-02-02T13:00:59.706Z,99088.27
2019-02-02T13:03:29.455Z,99088.17
2019-02-02T13:05:59.202Z,99095.45
2019-02-02T13:08:28.952Z,99102.67
2019-02-02T13:10:58.750Z,99109.77
2019-02-02T13:13:28.634Z,99101.56
2019-02-02T13:15:58.369Z,99106.81
2019-02-02T13:18:28.218Z,99101.23
2019-02-02T13:20:57.982Z,99112.11
2019-02-02T13:23:27.754Z,99119.50
2019-02-02T13:26:04.872Z,99124.13
2019-02-02T13:28:29.022Z,99122.31
2019-02-02T13:30:58.754Z,99130.47
2019-02-02T13:33:28.544Z,99131.05
2019-02-02T13:35:58.315Z,99140.48
2019-02-02T13:38:28.115Z,99144.00
2019-02-02T13:40:57.872Z,99139.13
2019-02-02T13:43:27.645Z,99142.41
2019-02-02T13:45:57.376Z,99138.91
2019-02-02T13:48:27.149Z,99144.09
2019-02-02T13:50:56.889Z,99149.86
2019-02-02T13:53:26.704Z,99163.17
2019-02-02T13:55:56.464Z,99157.61
2019-02-02T13:58:27.222Z,99165.11
2019-02-02T14:00:56.946Z,99169.73
2019-02-02T14:03:26.718Z,99170.05
2019-02-02T14:05:56.466Z,99180.13
2019-02-02T14:08:26.237Z,99182.98
2019-02-02T14:10:55.973Z,99188.05
2019-02-02T14:13:25.755Z,99195.26
2019-02-02T14:15:55.536Z,99205.70
2019-02-02T14:18:25.263Z,99205.84
2019-02-02T14:20:55.065Z,99194.77
2019-02-02T14:23:24.836Z,99199.12
2019-02-02T14:25:55.538Z,99200.41
2019-02-02T14:28:28.443Z,99209.22
2019-02-02T14:30:56.870Z,99211.53
2019-02-02T14:33:26.664Z,99215.11
2019-02-02T14:35:56.423Z,99214.00
2019-02-02T14:38:26.209Z,99212.27
2019-02-02T14:40:55.964Z,99220.92
2019-02-02T14:43:25.737Z,99227.81
2019-02-02T14:45:55.470Z,99232.64
2019-02-02T14:48:25.223Z,99246.09
2019-02-02T14:50:54.963Z,99247.48
2019-02-02T14:53:24.733Z,99258.17
2019-02-02T14:55:54.482Z,99257.15
2019-02-02T14:58:25.151Z,99264.07
2019-02-02T15:00:54.963Z,99269.84
2019-02-02T15:03:26.172Z,99274.95
2019-02-02T15:05:56.091Z,99281.45
2019-02-02T15:08:25.863Z,99289.99
2019-02-02T15:10:55.647Z,99284.73
2019-02-02T15:13:25.360Z,99295.45
2019-02-02T15:15:55.097Z,99296.16
2019-02-02T15:18:24.871Z,99304.75
2019-02-02T15:20:54.631Z,99307.64
2019-02-02T15:23:24.381Z,99305.14
2019-02-02T15:25:54.133Z,99299.70
2019-02-02T15:28:23.917Z,99298.93
2019-02-02T15:30:55.355Z,99307.81
2019-02-02T15:33:37.206Z,99314.78
2019-02-02T15:35:56.720Z,99319.58
2019-02-02T15:38:26.472Z,99323.14
2019-02-02T15:40:59.147Z,99328.08
2019-02-02T15:43:27.735Z,99331.77
2019-02-02T15:45:57.514Z,99335.97
2019-02-02T15:48:27.359Z,99341.21
2019-02-02T15:50:57.133Z,99343.03
2019-02-02T15:53:26.984Z,99349.16
2019-02-02T15:55:56.785Z,99358.15
2019-02-02T15:58:26.707Z,99355.09
2019-02-02T16:00:56.645Z,99360.72
2019-02-02T16:03:26.431Z,99374.13
2019-02-02T16:05:56.192Z,99379.33
2019-02-02T16:08:25.960Z,99378.20
2019-02-02T16:10:55.722Z,99388.73
2019-02-02T16:13:25.505Z,99390.97
2019-02-02T16:15:55.428Z,99398.18
2019-02-02T16:18:25.273Z,99399.81
2019-02-02T16:20:54.998Z,99406.30
2019-02-02T16:23:24.775Z,99416.57
2019-02-02T16:25:54.533Z,99421.18
2019-02-02T16:28:24.336Z,99439.05
2019-02-02T16:30:54.134Z,99436.70
2019-02-02T16:33:24.262Z,99439.83
2019-02-02T16:35:54.045Z,99437.56
2019-02-02T16:38:24.028Z,99435.97
2019-02-02T16:40:53.836Z,99441.92
2019-02-02T16:43:23.599Z,99443.91
2019-02-02T16:45:53.385Z,99448.21
2019-02-02T16:48:23.216Z,99449.26
2019-02-02T16:50:52.939Z,99450.56
2019-02-02T16:53:23.780Z,99464.11
2019-02-02T16:55:53.599Z,99469.02
2019-02-02T16:58:23.385Z,99479.97
2019-02-02T17:00:53.312Z,99493.63
2019-02-02T17:03:23.070Z,99500.72
2019-02-02T17:05:52.871Z,99504.89
2019-02-02T17:08:22.613Z,99511.05
2019-02-02T17:10:52.505Z,99520.59
2019-02-02T17:13:22.244Z,99522.09
2019-02-02T17:15:52.084Z,99536.94
2019-02-02T17:18:21.818Z,99540.58
2019-02-02T17:20:51.588Z,99543.94
2019-02-02T17:23:21.428Z,99548.81
2019-02-02T17:25:51.278Z,99552.91
2019-02-02T17:28:21.055Z,99556.47
2019-02-02T17:30:50.899Z,99558.58
2019-02-02T17:33:20.639Z,99568.03
2019-02-02T17:35:50.439Z,99575.03
2019-02-02T17:38:20.202Z,99574.70
2019-02-02T17:40:49.976Z,99576.31
2019-02-02T17:43:19.908Z,99572.81
2019-02-02T17:45:49.702Z,99586.59
2019-02-02T17:48:19.432Z,99595.79
2019-02-02T17:50:49.221Z,99605.02
2019-02-02T17:53:18.966Z,99606.64
2019-02-02T17:55:48.815Z,99609.12
2019-02-02T17:58:18.634Z,99607.46
2019-02-02T18:00:50.048Z,99616.70
2019-02-02T18:03:19.814Z,99617.73
2019-02-02T18:05:49.630Z,99622.53
2019-02-02T18:08:19.377Z,99630.24
2019-02-02T18:10:49.129Z,99639.36
2019-02-02T18:13:18.888Z,99642.87
2019-02-02T18:15:48.645Z,99641.22
2019-02-02T18:18:18.425Z,99645.69
2019-02-02T18:20:48.260Z,99648.88
2019-02-02T18:23:18.687Z,99655.64
2019-02-02T18:25:48.534Z,99653.56
2019-02-02T18:28:19.551Z,99663.05
2019-02-02T18:30:49.299Z,99670.50
2019-02-02T18:33:19.134Z,99661.10
2019-02-02T18:35:49.997Z,99669.68
2019-02-02T18:38:20.379Z,99678.83
2019-02-02T18:40:50.192Z,99688.27
2019-02-02T18:43:20.002Z,99683.00
2019-02-02T18:45:49.864Z,99689.62
2019-02-02T18:48:19.610Z,99696.43
2019-02-02T18:50:49.480Z,99704.16
2019-02-02T18:53:19.285Z,99703.92
2019-02-02T18:55:52.008Z,99704.52
2019-02-02T18:58:21.873Z,99709.45
2019-02-02T19:00:51.657Z,99713.59
2019-02-02T19:03:21.516Z,99716.05
2019-02-02T19:05:51.384Z,99715.77
2019-02-02T19:08:21.137Z,99716.84
2019-02-02T19:10:50.931Z,99727.99
2019-02-02T19:13:20.745Z,99727.37
2019-02-02T19:15:50.554Z,99732.17
2019-02-02T19:18:20.320Z,99726.78
2019-02-02T19:20:50.219Z,99731.58
2019-02-02T19:23:25.459Z,99726.02
2019-02-02T19:25:51.607Z,99736.52
2019-02-02T19:28:21.373Z,99734.08
2019-02-02T19:30:53.551Z,99740.63
2019-02-02T19:33:22.703Z,99746.23
2019-02-02T19:35:52.553Z,99749.89
2019-02-02T19:38:22.325Z,99754.36
2019-02-02T19:40:52.108Z,99767.06
2019-02-02T19:43:21.861Z,99773.30
2019-02-02T19:45:53.731Z,99769.84
2019-02-02T19:48:23.202Z,99774.78
2019-02-02T19:50:53.006Z,99780.73
2019-02-02T19:53:22.755Z,99792.30
2019-02-02T19:55:52.570Z,99794.66
2019-02-02T19:58:22.388Z,99797.63
2019-02-02T20:00:52.176Z,99805.39
2019-02-02T20:03:22.014Z,99808.03
2019-02-02T20:05:51.917Z,99810.81
2019-02-02T20:08:21.693Z,99810.81
2019-02-02T20:10:51.587Z,99824.86
2019-02-02T20:13:21.407Z,99815.73
2019-02-02T20:15:51.223Z,99823.44
2019-02-02T20:18:21.003Z,99832.43
2019-02-02T20:20:50.766Z,99845.00
2019-02-02T20:23:20.614Z,99847.38
2019-02-02T20:25:50.389Z,99847.70
2019-02-02T20:28:20.265Z,99852.21
2019-02-02T20:30:50.248Z,99846.69
2019-02-02T20:33:20.522Z,99851.23
2019-02-02T20:35:50.262Z,99856.37
2019-02-02T20:38:20.035Z,99865.03
2019-02-02T20:40:49.787Z,99872.23
2019-02-02T20:43:19.589Z,99872.55
2019-02-02T20:45:49.318Z,99869.16
2019-02-02T20:48:19.139Z,99875.30
2019-02-02T20:50:48.861Z,99880.73
2019-02-02T20:53:19.039Z,99886.09
2019-02-02T20:55:48.800Z,99893.16
2019-02-02T20:58:18.588Z,99909.75
2019-02-02T21:00:49.381Z,99908.15
2019-02-02T21:03:19.157Z,99921.27
2019-02-02T21:05:52.553Z,99925.67
2019-02-02T21:08:20.775Z,99932.81
2019-02-02T21:10:50.523Z,99932.72
2019-02-02T21:13:20.319Z,99948.30
2019-02-02T21:15:50.055Z,99939.60
2019-02-02T21:18:20.220Z,99953.69
2019-02-02T21:20:49.972Z,99957.02
2019-02-02T21:23:19.752Z,99954.51
2019-02-02T21:25:49.468Z,99961.75
2019-02-02T21:28:19.282Z,99964.14
2019-02-02T21:30:49.464Z,99968.22
2019-02-02T21:33:19.237Z,99976.56
2019-02-02T21:35:49.100Z,99988.38
2019-02-02T21:38:18.844Z,99997.02
2019-02-02T21:40:48.597Z,100008.11
2019-02-02T21:43:18.726Z,100019.69
2019-02-02T21:45:48.559Z,100020.36
2019-02-02T21:48:18.306Z,100027.02
2019-02-02T21:50:48.042Z,100043.56
2019-02-02T21:53:17.824Z,100036.97
2019-02-02T21:55:47.577Z,100034.40
2019-02-02T21:58:17.424Z,100040.73
2019-02-02T22:00:47.185Z,100045.00
2019-02-02T22:03:16.954Z,100050.13
2019-02-02T22:05:46.695Z,100055.27
2019-02-02T22:08:16.483Z,100055.09
2019-02-02T22:10:46.254Z,100059.88
2019-02-02T22:13:16.023Z,100063.30
2019-02-02T22:15:45.775Z,100068.44
2019-02-02T22:18:15.542Z,100069.91
2019-02-02T22:20:45.302Z,100067.31
2019-02-02T22:23:15.230Z,100068.45
2019-02-02T22:25:44.987Z,100080.16
2019-02-02T22:28:14.757Z,100082.27
2019-02-02T22:30:44.591Z,100091.38
2019-02-02T22:33:14.400Z,100089.95
2019-02-02T22:35:44.443Z,100096.78
2019-02-02T22:38:14.329Z,100091.89
2019-02-02T22:40:44.151Z,100104.09
2019-02-02T22:43:14.055Z,100100.23
2019-02-02T22:45:43.788Z,100105.93
2019-02-02T22:48:13.959Z,100117.39
2019-02-02T22:50:43.865Z,100125.82
2019-02-02T22:53:14.544Z,100131.27
2019-02-02T22:55:44.295Z,100134.09
2019-02-02T22:58:14.091Z,100142.91
2019-02-02T23:01:03.343Z,100146.45
2019-02-02T23:03:57.497Z,100147.73
2019-02-02T23:06:45.716Z,100156.88
2019-02-02T23:09:30.476Z,100157.75
2019-02-02T23:12:12.537Z,100173.56
2019-02-02T23:15:10.321Z,100182.08
2019-02-02T23:17:40.179Z,100187.21
2019-02-02T23:20:09.946Z,100205.80
2019-02-02T23:22:39.700Z,100206.12
2019-02-02T23:25:09.460Z,100213.52
2019-02-02T23:27:39.238Z,100211.85
2019-02-02T23:30:16.230Z,100214.23
2019-02-02T23:32:45.964Z,100220.69
2019-02-02T23:35:15.728Z,100224.44
2019-02-02T23:37:45.479Z,100232.80
2019-02-02T23:40:15.247Z,100228.54
2019-02-02T23:42:45.355Z,100233.73
2019-02-02T23:45:15.189Z,100231.98
2019-02-02T23:47:44.926Z,100232.86
2019-02-02T23:50:14.682Z,100228.13
2019-02-02T23:52:44.423Z,100225.41
2019-02-02T23:55:14.201Z,100228.45
2019-02-02T23:57:44.016Z,100241.13
